sensor_id;sensor_type;location;lat;lon;timestamp;pressure;altitude;pressure_sealevel;temperature;humidity
68712;BME280;55690;51.566;19.198;2023-01-15T00:01:05;100864.41;;;7.40;86.52
68712;BME280;55690;51.566;19.198;2023-01-15T00:05:12;100870.47;;;7.29;86.30
68712;BME280;55690;51.566;19.198;2023-01-15T00:09:17;100850.04;;;7.39;86.10
68712;BME280;55690;51.566;19.198;2023-01-15T00:13:23;100826.89;;;7.35;86.06
68712;BME280;55690;51.566;19.198;2023-01-15T00:17:29;100825.35;;;7.45;85.57
68712;BME280;55690;51.566;19.198;2023-01-15T00:21:35;100818.38;;;7.27;85.91
68712;BME280;55690;51.566;19.198;2023-01-15T00:25:41;100796.88;;;7.40;85.57
68712;BME280;55690;51.566;19.198;2023-01-15T00:29:55;100807.68;;;7.40;85.40
68712;BME280;55690;51.566;19.198;2023-01-15T00:33:56;100785.41;;;7.36;85.79
68712;BME280;55690;51.566;19.198;2023-01-15T00:38:00;100796.05;;;7.53;85.34
68712;BME280;55690;51.566;19.198;2023-01-15T00:42:07;100788.63;;;7.57;85.25
68712;BME280;55690;51.566;19.198;2023-01-15T00:46:12;100792.94;;;7.45;85.39
68712;BME280;55690;51.566;19.198;2023-01-15T00:50:18;100791.83;;;7.04;85.51
68712;BME280;55690;51.566;19.198;2023-01-15T00:54:24;100788.95;;;7.37;85.10
68712;BME280;55690;51.566;19.198;2023-01-15T00:58:31;100777.34;;;7.20;85.54
68712;BME280;55690;51.566;19.198;2023-01-15T01:02:37;100769.21;;;7.36;85.28
68712;BME280;55690;51.566;19.198;2023-01-15T01:06:43;100756.24;;;7.27;85.57
68712;BME280;55690;51.566;19.198;2023-01-15T01:10:49;100747.70;;;7.34;85.08
68712;BME280;55690;51.566;19.198;2023-01-15T01:14:56;100731.95;;;7.41;84.92
68712;BME280;55690;51.566;19.198;2023-01-15T01:19:08;100714.59;;;7.31;85.01
68712;BME280;55690;51.566;19.198;2023-01-15T01:23:10;100713.99;;;7.26;85.29
68712;BME280;55690;51.566;19.198;2023-01-15T01:27:14;100710.34;;;7.41;85.02
68712;BME280;55690;51.566;19.198;2023-01-15T01:31:21;100716.79;;;7.39;84.70
68712;BME280;55690;51.566;19.198;2023-01-15T01:35:26;100715.64;;;7.43;84.72
68712;BME280;55690;51.566;19.198;2023-01-15T01:39:32;100716.45;;;7.59;84.42
68712;BME280;55690;51.566;19.198;2023-01-15T01:47:55;100712.94;;;7.43;84.63
68712;BME280;55690;51.566;19.198;2023-01-15T01:52:05;100708.41;;;7.43;85.02
68712;BME280;55690;51.566;19.198;2023-01-15T01:56:09;100683.23;;;7.28;84.62
68712;BME280;55690;51.566;19.198;2023-01-15T02:00:12;100676.95;;;7.42;84.66
68712;BME280;55690;51.566;19.198;2023-01-15T02:09:31;100669.63;;;7.30;84.81
68712;BME280;55690;51.566;19.198;2023-01-15T02:13:40;100658.44;;;7.50;85.16
68712;BME280;55690;51.566;19.198;2023-01-15T02:17:51;100657.68;;;7.34;85.59
68712;BME280;55690;51.566;19.198;2023-01-15T02:30:29;100651.10;;;7.24;86.58
68712;BME280;55690;51.566;19.198;2023-01-15T02:34:34;100643.68;;;7.27;86.37
68712;BME280;55690;51.566;19.198;2023-01-15T02:38:44;100628.73;;;7.22;86.06
68712;BME280;55690;51.566;19.198;2023-01-15T02:42:48;100606.34;;;7.20;86.34
68712;BME280;55690;51.566;19.198;2023-01-15T02:46:50;100608.45;;;7.15;86.10
68712;BME280;55690;51.566;19.198;2023-01-15T02:50:56;100602.84;;;6.89;85.84
68712;BME280;55690;51.566;19.198;2023-01-15T02:55:04;100595.30;;;6.94;85.90
68712;BME280;55690;51.566;19.198;2023-01-15T02:59:10;100594.45;;;7.08;85.67
68712;BME280;55690;51.566;19.198;2023-01-15T03:07:39;100579.42;;;7.18;85.55
68712;BME280;55690;51.566;19.198;2023-01-15T03:20:25;100568.90;;;7.42;85.60
68712;BME280;55690;51.566;19.198;2023-01-15T03:24:33;100566.48;;;7.52;85.79
68712;BME280;55690;51.566;19.198;2023-01-15T03:28:38;100555.45;;;7.69;85.47
68712;BME280;55690;51.566;19.198;2023-01-15T03:32:41;100544.05;;;7.78;84.74
68712;BME280;55690;51.566;19.198;2023-01-15T03:36:43;100537.62;;;7.93;84.90
68712;BME280;55690;51.566;19.198;2023-01-15T03:53:32;100529.00;;;8.01;84.85
68712;BME280;55690;51.566;19.198;2023-01-15T03:57:42;100517.11;;;8.04;84.71
68712;BME280;55690;51.566;19.198;2023-01-15T04:01:47;100504.55;;;8.03;84.64
68712;BME280;55690;51.566;19.198;2023-01-15T04:05:50;100500.16;;;8.14;84.43
68712;BME280;55690;51.566;19.198;2023-01-15T04:09:53;100496.55;;;8.01;84.47
68712;BME280;55690;51.566;19.198;2023-01-15T04:13:54;100487.88;;;7.96;84.27
68712;BME280;55690;51.566;19.198;2023-01-15T04:17:56;100488.94;;;7.93;84.31
68712;BME280;55690;51.566;19.198;2023-01-15T04:21:57;100492.60;;;8.19;84.43
68712;BME280;55690;51.566;19.198;2023-01-15T04:25:59;100481.64;;;8.08;84.40
68712;BME280;55690;51.566;19.198;2023-01-15T04:30:01;100483.63;;;7.92;84.55
68712;BME280;55690;51.566;19.198;2023-01-15T04:34:03;100473.33;;;8.24;84.49
68712;BME280;55690;51.566;19.198;2023-01-15T04:38:05;100464.91;;;8.28;84.76
68712;BME280;55690;51.566;19.198;2023-01-15T04:42:11;100463.37;;;8.24;84.80
68712;BME280;55690;51.566;19.198;2023-01-15T04:46:25;100468.27;;;8.32;84.91
68712;BME280;55690;51.566;19.198;2023-01-15T04:50:26;100461.98;;;8.31;85.20
68712;BME280;55690;51.566;19.198;2023-01-15T04:54:28;100465.98;;;8.13;85.17
68712;BME280;55690;51.566;19.198;2023-01-15T04:58:30;100469.06;;;8.34;85.38
68712;BME280;55690;51.566;19.198;2023-01-15T05:02:31;100457.60;;;8.43;84.96
68712;BME280;55690;51.566;19.198;2023-01-15T05:06:33;100448.07;;;8.38;85.65
68712;BME280;55690;51.566;19.198;2023-01-15T05:10:35;100435.85;;;8.45;85.88
68712;BME280;55690;51.566;19.198;2023-01-15T05:14:37;100437.59;;;8.46;86.58
68712;BME280;55690;51.566;19.198;2023-01-15T05:18:39;100435.10;;;8.55;86.92
68712;BME280;55690;51.566;19.198;2023-01-15T05:22:41;100425.95;;;8.31;87.84
68712;BME280;55690;51.566;19.198;2023-01-15T05:26:43;100426.76;;;8.46;88.50
68712;BME280;55690;51.566;19.198;2023-01-15T05:30:45;100411.07;;;8.51;88.93
68712;BME280;55690;51.566;19.198;2023-01-15T05:34:46;100406.95;;;8.45;89.92
68712;BME280;55690;51.566;19.198;2023-01-15T05:38:49;100392.34;;;8.48;89.74
68712;BME280;55690;51.566;19.198;2023-01-15T05:42:50;100390.39;;;8.50;89.69
68712;BME280;55690;51.566;19.198;2023-01-15T05:46:54;100385.03;;;8.86;89.77
68712;BME280;55690;51.566;19.198;2023-01-15T05:51:00;100378.77;;;8.73;90.82
68712;BME280;55690;51.566;19.198;2023-01-15T05:55:09;100373.36;;;8.73;91.04
68712;BME280;55690;51.566;19.198;2023-01-15T05:59:12;100359.06;;;8.71;91.60
68712;BME280;55690;51.566;19.198;2023-01-15T06:03:14;100367.72;;;8.76;92.19
68712;BME280;55690;51.566;19.198;2023-01-15T06:07:16;100368.01;;;8.97;91.67
68712;BME280;55690;51.566;19.198;2023-01-15T06:11:18;100364.45;;;8.96;91.42
68712;BME280;55690;51.566;19.198;2023-01-15T06:15:20;100345.91;;;9.03;91.47
68712;BME280;55690;51.566;19.198;2023-01-15T06:19:22;100353.50;;;8.98;91.51
68712;BME280;55690;51.566;19.198;2023-01-15T06:23:24;100354.13;;;9.02;91.14
68712;BME280;55690;51.566;19.198;2023-01-15T06:27:28;100358.91;;;8.98;91.02
68712;BME280;55690;51.566;19.198;2023-01-15T06:31:33;100353.69;;;9.08;90.67
68712;BME280;55690;51.566;19.198;2023-01-15T06:35:41;100363.69;;;8.94;90.22
68712;BME280;55690;51.566;19.198;2023-01-15T06:39:48;100359.80;;;8.86;90.48
68712;BME280;55690;51.566;19.198;2023-01-15T06:43:53;100365.61;;;9.05;90.96
68712;BME280;55690;51.566;19.198;2023-01-15T06:48:14;100365.72;;;9.04;91.09
68712;BME280;55690;51.566;19.198;2023-01-15T06:52:16;100374.43;;;8.83;92.45
68712;BME280;55690;51.566;19.198;2023-01-15T06:56:19;100383.32;;;8.73;93.60
68712;BME280;55690;51.566;19.198;2023-01-15T07:00:21;100381.90;;;8.80;94.12
68712;BME280;55690;51.566;19.198;2023-01-15T07:04:23;100403.82;;;8.64;95.03
68712;BME280;55690;51.566;19.198;2023-01-15T07:08:27;100370.58;;;8.37;95.96
68712;BME280;55690;51.566;19.198;2023-01-15T07:16:56;100380.83;;;8.31;98.07
68712;BME280;55690;51.566;19.198;2023-01-15T07:21:03;100390.80;;;8.18;98.11
68712;BME280;55690;51.566;19.198;2023-01-15T07:25:09;100397.05;;;8.06;98.72
68712;BME280;55690;51.566;19.198;2023-01-15T07:29:15;100401.62;;;8.18;97.92
68712;BME280;55690;51.566;19.198;2023-01-15T07:33:22;100390.91;;;8.17;97.21
68712;BME280;55690;51.566;19.198;2023-01-15T07:37:27;100385.61;;;8.15;97.17
68712;BME280;55690;51.566;19.198;2023-01-15T07:41:34;100387.31;;;8.04;96.74
68712;BME280;55690;51.566;19.198;2023-01-15T07:45:48;100388.18;;;8.04;97.87
68712;BME280;55690;51.566;19.198;2023-01-15T07:50:03;100390.80;;;8.18;98.92
68712;BME280;55690;51.566;19.198;2023-01-15T07:54:06;100391.71;;;7.92;99.99
68712;BME280;55690;51.566;19.198;2023-01-15T07:58:08;100378.75;;;7.97;100.00
68712;BME280;55690;51.566;19.198;2023-01-15T08:02:10;100373.97;;;7.88;100.00
68712;BME280;55690;51.566;19.198;2023-01-15T08:06:13;100386.93;;;7.70;100.00
68712;BME280;55690;51.566;19.198;2023-01-15T08:10:17;100365.36;;;7.56;100.00
68712;BME280;55690;51.566;19.198;2023-01-15T08:14:23;100375.66;;;7.63;100.00
68712;BME280;55690;51.566;19.198;2023-01-15T08:18:36;100368.58;;;7.48;100.00
68712;BME280;55690;51.566;19.198;2023-01-15T08:22:39;100376.32;;;7.40;100.00
68712;BME280;55690;51.566;19.198;2023-01-15T08:26:42;100386.17;;;7.41;100.00
68712;BME280;55690;51.566;19.198;2023-01-15T08:30:47;100382.09;;;7.48;100.00
68712;BME280;55690;51.566;19.198;2023-01-15T08:34:54;100376.80;;;7.20;100.00
68712;BME280;55690;51.566;19.198;2023-01-15T08:39:00;100377.06;;;7.29;100.00
68712;BME280;55690;51.566;19.198;2023-01-15T08:43:08;100383.64;;;7.25;100.00
68712;BME280;55690;51.566;19.198;2023-01-15T08:47:13;100385.16;;;7.29;100.00
68712;BME280;55690;51.566;19.198;2023-01-15T08:51:18;100384.14;;;7.18;100.00
68712;BME280;55690;51.566;19.198;2023-01-15T08:55:25;100381.04;;;7.24;100.00
68712;BME280;55690;51.566;19.198;2023-01-15T08:59:31;100371.09;;;7.24;100.00
68712;BME280;55690;51.566;19.198;2023-01-15T09:03:37;100392.16;;;7.05;100.00
68712;BME280;55690;51.566;19.198;2023-01-15T09:07:43;100385.99;;;7.03;100.00
68712;BME280;55690;51.566;19.198;2023-01-15T09:11:49;100379.13;;;7.12;100.00
68712;BME280;55690;51.566;19.198;2023-01-15T09:16:00;100387.30;;;6.83;100.00
68712;BME280;55690;51.566;19.198;2023-01-15T09:20:03;100383.15;;;6.92;100.00
68712;BME280;55690;51.566;19.198;2023-01-15T09:24:08;100378.25;;;6.70;100.00
68712;BME280;55690;51.566;19.198;2023-01-15T09:28:14;100388.01;;;7.14;100.00
68712;BME280;55690;51.566;19.198;2023-01-15T09:32:20;100379.35;;;6.94;100.00
68712;BME280;55690;51.566;19.198;2023-01-15T09:36:32;100365.52;;;6.86;100.00
68712;BME280;55690;51.566;19.198;2023-01-15T09:49:18;100336.42;;;6.63;100.00
68712;BME280;55690;51.566;19.198;2023-01-15T09:57:36;100345.68;;;6.59;100.00
68712;BME280;55690;51.566;19.198;2023-01-15T10:01:43;100336.92;;;6.55;100.00
68712;BME280;55690;51.566;19.198;2023-01-15T10:05:57;100334.98;;;6.72;100.00
68712;BME280;55690;51.566;19.198;2023-01-15T10:10:04;100332.92;;;6.89;100.00
68712;BME280;55690;51.566;19.198;2023-01-15T10:14:14;100323.98;;;6.75;100.00
68712;BME280;55690;51.566;19.198;2023-01-15T10:18:19;100316.30;;;6.95;100.00
68712;BME280;55690;51.566;19.198;2023-01-15T10:22:47;100302.80;;;6.95;100.00
68712;BME280;55690;51.566;19.198;2023-01-15T10:26:48;100313.50;;;6.97;100.00
68712;BME280;55690;51.566;19.198;2023-01-15T10:30:55;100301.74;;;6.98;100.00
68712;BME280;55690;51.566;19.198;2023-01-15T10:39:27;100298.80;;;6.88;100.00
68712;BME280;55690;51.566;19.198;2023-01-15T10:47:51;100299.04;;;6.98;100.00
68712;BME280;55690;51.566;19.198;2023-01-15T10:52:02;100301.69;;;7.12;100.00
68712;BME280;55690;51.566;19.198;2023-01-15T11:00:18;100290.79;;;7.14;100.00
68712;BME280;55690;51.566;19.198;2023-01-15T11:04:27;100286.31;;;7.27;100.00
68712;BME280;55690;51.566;19.198;2023-01-15T11:08:31;100288.05;;;7.28;100.00
68712;BME280;55690;51.566;19.198;2023-01-15T11:12:39;100276.48;;;7.26;100.00
68712;BME280;55690;51.566;19.198;2023-01-15T11:16:57;100284.70;;;7.37;100.00
68712;BME280;55690;51.566;19.198;2023-01-15T11:21:16;100270.66;;;7.32;100.00
68712;BME280;55690;51.566;19.198;2023-01-15T11:25:31;100273.05;;;7.49;100.00
68712;BME280;55690;51.566;19.198;2023-01-15T11:29:35;100265.08;;;7.60;100.00
68712;BME280;55690;51.566;19.198;2023-01-15T11:33:39;100261.17;;;7.52;100.00
68712;BME280;55690;51.566;19.198;2023-01-15T11:37:41;100233.84;;;7.56;99.68
68712;BME280;55690;51.566;19.198;2023-01-15T11:41:43;100255.81;;;7.77;98.69
68712;BME280;55690;51.566;19.198;2023-01-15T11:45:56;100250.29;;;7.66;98.16
68712;BME280;55690;51.566;19.198;2023-01-15T11:50:18;100253.07;;;7.52;98.09
68712;BME280;55690;51.566;19.198;2023-01-15T11:54:37;100248.45;;;7.66;98.27
68712;BME280;55690;51.566;19.198;2023-01-15T11:58:51;100238.71;;;7.64;97.48
68712;BME280;55690;51.566;19.198;2023-01-15T12:03:01;100236.67;;;7.67;96.85
68712;BME280;55690;51.566;19.198;2023-01-15T12:07:12;100247.81;;;7.76;96.38
68712;BME280;55690;51.566;19.198;2023-01-15T12:15:45;100225.00;;;7.80;95.81
68712;BME280;55690;51.566;19.198;2023-01-15T12:28:28;100219.23;;;7.97;94.95
68712;BME280;55690;51.566;19.198;2023-01-15T12:32:37;100218.27;;;7.98;95.30
68712;BME280;55690;51.566;19.198;2023-01-15T12:36:51;100215.56;;;7.85;95.25
68712;BME280;55690;51.566;19.198;2023-01-15T12:41:06;100214.91;;;7.82;94.67
68712;BME280;55690;51.566;19.198;2023-01-15T12:45:17;100225.62;;;7.96;94.38
68712;BME280;55690;51.566;19.198;2023-01-15T12:49:33;100217.70;;;8.18;94.47
68712;BME280;55690;51.566;19.198;2023-01-15T12:53:45;100199.91;;;8.27;93.62
68712;BME280;55690;51.566;19.198;2023-01-15T12:57:55;100228.53;;;8.06;93.74
68712;BME280;55690;51.566;19.198;2023-01-15T13:06:16;100228.75;;;8.03;93.46
68712;BME280;55690;51.566;19.198;2023-01-15T13:10:25;100233.08;;;8.05;93.89
68712;BME280;55690;51.566;19.198;2023-01-15T13:14:28;100240.76;;;7.98;93.58
68712;BME280;55690;51.566;19.198;2023-01-15T13:35:34;100261.84;;;8.06;93.84
68712;BME280;55690;51.566;19.198;2023-01-15T13:39:40;100261.26;;;8.26;93.36
68712;BME280;55690;51.566;19.198;2023-01-15T13:43:44;100245.38;;;8.34;93.20
68712;BME280;55690;51.566;19.198;2023-01-15T13:47:50;100243.88;;;8.18;93.38
68712;BME280;55690;51.566;19.198;2023-01-15T13:51:54;100250.66;;;8.23;93.67
68712;BME280;55690;51.566;19.198;2023-01-15T13:56:12;100246.91;;;8.13;93.47
68712;BME280;55690;51.566;19.198;2023-01-15T14:04:35;100263.10;;;8.26;93.68
68712;BME280;55690;51.566;19.198;2023-01-15T14:08:40;100260.64;;;8.23;93.74
68712;BME280;55690;51.566;19.198;2023-01-15T14:17:09;100279.79;;;8.32;93.52
68712;BME280;55690;51.566;19.198;2023-01-15T14:29:45;100266.25;;;8.45;93.35
68712;BME280;55690;51.566;19.198;2023-01-15T14:38:07;100276.01;;;8.35;93.69
68712;BME280;55690;51.566;19.198;2023-01-15T14:46:43;100281.95;;;8.40;94.33
68712;BME280;55690;51.566;19.198;2023-01-15T14:50:45;100276.12;;;8.33;95.00
68712;BME280;55690;51.566;19.198;2023-01-15T14:54:51;100291.48;;;8.20;95.45
68712;BME280;55690;51.566;19.198;2023-01-15T14:59:01;100293.32;;;8.20;95.37
68712;BME280;55690;51.566;19.198;2023-01-15T15:03:15;100301.97;;;8.50;94.71
68712;BME280;55690;51.566;19.198;2023-01-15T15:07:21;100308.90;;;8.42;95.27
68712;BME280;55690;51.566;19.198;2023-01-15T15:11:32;100315.93;;;8.44;95.34
68712;BME280;55690;51.566;19.198;2023-01-15T15:24:26;100345.88;;;8.03;96.39
68712;BME280;55690;51.566;19.198;2023-01-15T15:28:31;100348.28;;;8.20;96.36
68712;BME280;55690;51.566;19.198;2023-01-15T15:32:34;100357.25;;;8.08;96.56
68712;BME280;55690;51.566;19.198;2023-01-15T15:36:44;100356.82;;;8.14;96.63
68712;BME280;55690;51.566;19.198;2023-01-15T15:40:53;100355.84;;;8.15;96.69
68712;BME280;55690;51.566;19.198;2023-01-15T15:44:58;100356.80;;;8.27;96.43
68712;BME280;55690;51.566;19.198;2023-01-15T15:49:12;100374.79;;;8.15;96.92
68712;BME280;55690;51.566;19.198;2023-01-15T15:53:16;100369.80;;;8.09;96.79
68712;BME280;55690;51.566;19.198;2023-01-15T15:57:19;100381.69;;;8.07;97.20
68712;BME280;55690;51.566;19.198;2023-01-15T16:01:23;100380.83;;;8.06;97.87
68712;BME280;55690;51.566;19.198;2023-01-15T16:05:29;100386.63;;;7.87;99.56
68712;BME280;55690;51.566;19.198;2023-01-15T16:09:34;100375.66;;;7.63;100.00
68712;BME280;55690;51.566;19.198;2023-01-15T16:13:43;100383.66;;;7.65;100.00
68712;BME280;55690;51.566;19.198;2023-01-15T16:17:45;100384.68;;;7.77;100.00
68712;BME280;55690;51.566;19.198;2023-01-15T16:21:48;100395.15;;;7.81;100.00
68712;BME280;55690;51.566;19.198;2023-01-15T16:30:12;100420.13;;;7.85;100.00
68712;BME280;55690;51.566;19.198;2023-01-15T16:38:35;100440.01;;;7.71;100.00
68712;BME280;55690;51.566;19.198;2023-01-15T16:42:39;100441.99;;;7.55;100.00
68712;BME280;55690;51.566;19.198;2023-01-15T16:46:51;100459.53;;;7.62;100.00
68712;BME280;55690;51.566;19.198;2023-01-15T16:50:54;100470.27;;;7.49;100.00
68712;BME280;55690;51.566;19.198;2023-01-15T16:54:58;100484.08;;;7.45;100.00
68712;BME280;55690;51.566;19.198;2023-01-15T17:03:15;100495.63;;;7.61;100.00
68712;BME280;55690;51.566;19.198;2023-01-15T17:07:30;100498.45;;;7.45;100.00
68712;BME280;55690;51.566;19.198;2023-01-15T17:11:29;100512.73;;;7.47;100.00
68712;BME280;55690;51.566;19.198;2023-01-15T17:15:38;100518.69;;;7.66;100.00
68712;BME280;55690;51.566;19.198;2023-01-15T17:19:41;100516.10;;;7.51;100.00
68712;BME280;55690;51.566;19.198;2023-01-15T17:23:44;100521.33;;;7.40;100.00
68712;BME280;55690;51.566;19.198;2023-01-15T17:27:46;100528.38;;;7.42;100.00
68712;BME280;55690;51.566;19.198;2023-01-15T17:31:54;100528.55;;;7.53;100.00
68712;BME280;55690;51.566;19.198;2023-01-15T17:35:56;100541.56;;;7.61;100.00
68712;BME280;55690;51.566;19.198;2023-01-15T17:40:01;100540.90;;;7.57;100.00
68712;BME280;55690;51.566;19.198;2023-01-15T17:44:04;100548.31;;;7.68;100.00
68712;BME280;55690;51.566;19.198;2023-01-15T17:48:07;100542.15;;;7.52;100.00
68712;BME280;55690;51.566;19.198;2023-01-15T17:52:18;100559.34;;;7.51;100.00
68712;BME280;55690;51.566;19.198;2023-01-15T17:56:20;100565.80;;;7.48;100.00
68712;BME280;55690;51.566;19.198;2023-01-15T18:00:35;100569.09;;;6.96;100.00
68712;BME280;55690;51.566;19.198;2023-01-15T18:04:52;100567.76;;;7.32;100.00
68712;BME280;55690;51.566;19.198;2023-01-15T18:09:07;100564.67;;;7.24;100.00
68712;BME280;55690;51.566;19.198;2023-01-15T18:13:09;100573.94;;;7.34;100.00
68712;BME280;55690;51.566;19.198;2023-01-15T18:17:13;100586.48;;;7.21;100.00
68712;BME280;55690;51.566;19.198;2023-01-15T18:21:14;100582.51;;;7.12;100.00
68712;BME280;55690;51.566;19.198;2023-01-15T18:25:16;100580.21;;;7.34;100.00
68712;BME280;55690;51.566;19.198;2023-01-15T18:29:19;100584.16;;;7.29;100.00
68712;BME280;55690;51.566;19.198;2023-01-15T18:33:21;100580.69;;;7.27;100.00
68712;BME280;55690;51.566;19.198;2023-01-15T18:37:23;100588.60;;;7.30;100.00
68712;BME280;55690;51.566;19.198;2023-01-15T18:41:25;100580.96;;;7.08;100.00
68712;BME280;55690;51.566;19.198;2023-01-15T18:45:45;100577.70;;;7.17;100.00
68712;BME280;55690;51.566;19.198;2023-01-15T18:49:58;100583.63;;;6.94;100.00
68712;BME280;55690;51.566;19.198;2023-01-15T18:54:00;100584.91;;;6.88;100.00
68712;BME280;55690;51.566;19.198;2023-01-15T18:58:02;100580.84;;;6.95;100.00
68712;BME280;55690;51.566;19.198;2023-01-15T19:02:04;100582.02;;;7.06;100.00
68712;BME280;55690;51.566;19.198;2023-01-15T19:06:08;100582.51;;;7.12;100.00
68712;BME280;55690;51.566;19.198;2023-01-15T19:10:15;100599.73;;;6.95;100.00
68712;BME280;55690;51.566;19.198;2023-01-15T19:14:19;100605.87;;;6.69;100.00
68712;BME280;55690;51.566;19.198;2023-01-15T19:18:33;100607.05;;;6.79;100.00
68712;BME280;55690;51.566;19.198;2023-01-15T19:22:49;100613.83;;;6.86;100.00
68712;BME280;55690;51.566;19.198;2023-01-15T19:27:00;100607.93;;;6.94;100.00
68712;BME280;55690;51.566;19.198;2023-01-15T19:31:06;100603.98;;;6.85;100.00
68712;BME280;55690;51.566;19.198;2023-01-15T19:35:20;100607.69;;;6.68;100.00
68712;BME280;55690;51.566;19.198;2023-01-15T19:39:21;100619.99;;;6.58;100.00
68712;BME280;55690;51.566;19.198;2023-01-15T19:43:23;100621.55;;;6.62;100.00
68712;BME280;55690;51.566;19.198;2023-01-15T19:47:38;100626.16;;;6.60;100.00
68712;BME280;55690;51.566;19.198;2023-01-15T19:51:52;100634.41;;;6.43;100.00
68712;BME280;55690;51.566;19.198;2023-01-15T19:56:07;100630.41;;;6.34;100.00
68712;BME280;55690;51.566;19.198;2023-01-15T20:00:12;100630.84;;;6.43;100.00
68712;BME280;55690;51.566;19.198;2023-01-15T20:04:14;100620.44;;;6.51;100.00
68712;BME280;55690;51.566;19.198;2023-01-15T20:08:16;100615.52;;;6.43;100.00
68712;BME280;55690;51.566;19.198;2023-01-15T20:12:18;100632.58;;;6.44;100.00
68712;BME280;55690;51.566;19.198;2023-01-15T20:16:32;100625.09;;;6.49;100.00
68712;BME280;55690;51.566;19.198;2023-01-15T20:20:34;100624.84;;;6.38;100.00
68712;BME280;55690;51.566;19.198;2023-01-15T20:24:35;100628.59;;;6.35;100.00
68712;BME280;55690;51.566;19.198;2023-01-15T20:28:44;100627.13;;;6.59;100.00
68712;BME280;55690;51.566;19.198;2023-01-15T20:32:48;100628.82;;;6.76;100.00
68712;BME280;55690;51.566;19.198;2023-01-15T20:36:49;100626.30;;;6.73;100.00
68712;BME280;55690;51.566;19.198;2023-01-15T20:40:51;100624.48;;;6.44;100.00
68712;BME280;55690;51.566;19.198;2023-01-15T20:44:53;100623.56;;;6.59;100.00
68712;BME280;55690;51.566;19.198;2023-01-15T20:48:55;100626.13;;;6.46;100.00
68712;BME280;55690;51.566;19.198;2023-01-15T20:53:09;100642.62;;;6.56;100.00
68712;BME280;55690;51.566;19.198;2023-01-15T20:57:11;100641.54;;;6.44;100.00
68712;BME280;55690;51.566;19.198;2023-01-15T21:01:13;100650.27;;;6.63;100.00
68712;BME280;55690;51.566;19.198;2023-01-15T21:05:15;100651.82;;;6.67;100.00
68712;BME280;55690;51.566;19.198;2023-01-15T21:09:20;100644.42;;;6.71;100.00
68712;BME280;55690;51.566;19.198;2023-01-15T21:13:21;100648.67;;;6.75;100.00
68712;BME280;55690;51.566;19.198;2023-01-15T21:17:24;100638.60;;;6.63;100.00
68712;BME280;55690;51.566;19.198;2023-01-15T21:21:26;100639.63;;;6.76;100.00
68712;BME280;55690;51.566;19.198;2023-01-15T21:25:28;100631.74;;;6.57;100.00
68712;BME280;55690;51.566;19.198;2023-01-15T21:29:29;100638.60;;;6.63;100.00
68712;BME280;55690;51.566;19.198;2023-01-15T21:33:31;100636.41;;;6.70;100.00
68712;BME280;55690;51.566;19.198;2023-01-15T21:37:32;100631.98;;;6.68;100.00
68712;BME280;55690;51.566;19.198;2023-01-15T21:41:34;100642.67;;;6.70;100.00
68712;BME280;55690;51.566;19.198;2023-01-15T21:45:47;100634.91;;;6.80;100.00
68712;BME280;55690;51.566;19.198;2023-01-15T21:49:50;100634.41;;;6.73;100.00
68712;BME280;55690;51.566;19.198;2023-01-15T21:53:52;100629.13;;;6.56;100.00
68712;BME280;55690;51.566;19.198;2023-01-15T21:57:53;100635.76;;;6.50;100.00
68712;BME280;55690;51.566;19.198;2023-01-15T22:01:57;100631.65;;;6.59;100.00
68712;BME280;55690;51.566;19.198;2023-01-15T22:06:04;100637.73;;;6.62;100.00
68712;BME280;55690;51.566;19.198;2023-01-15T22:10:06;100638.33;;;6.67;100.00
68712;BME280;55690;51.566;19.198;2023-01-15T22:14:13;100641.27;;;6.49;100.00
68712;BME280;55690;51.566;19.198;2023-01-15T22:18:14;100631.71;;;6.73;100.00
68712;BME280;55690;51.566;19.198;2023-01-15T22:22:16;100630.56;;;6.77;100.00
68712;BME280;55690;51.566;19.198;2023-01-15T22:26:20;100631.35;;;6.49;100.00
68712;BME280;55690;51.566;19.198;2023-01-15T22:30:21;100632.88;;;6.53;100.00
68712;BME280;55690;51.566;19.198;2023-01-15T22:34:25;100622.84;;;6.71;100.00
68712;BME280;55690;51.566;19.198;2023-01-15T22:38:28;100616.42;;;6.58;100.00
68712;BME280;55690;51.566;19.198;2023-01-15T22:42:29;100614.50;;;6.60;100.00
68712;BME280;55690;51.566;19.198;2023-01-15T22:46:33;100607.07;;;6.49;100.00
68712;BME280;55690;51.566;19.198;2023-01-15T22:50:37;100596.47;;;6.46;100.00
68712;BME280;55690;51.566;19.198;2023-01-15T22:54:38;100600.14;;;6.29;100.00
68712;BME280;55690;51.566;19.198;2023-01-15T22:58:45;100591.25;;;6.43;100.00
68712;BME280;55690;51.566;19.198;2023-01-15T23:02:46;100595.11;;;6.23;100.00
68712;BME280;55690;51.566;19.198;2023-01-15T23:06:54;100587.09;;;6.38;100.00
68712;BME280;55690;51.566;19.198;2023-01-15T23:10:56;100590.67;;;6.22;100.00
68712;BME280;55690;51.566;19.198;2023-01-15T23:14:57;100593.37;;;6.22;100.00
68712;BME280;55690;51.566;19.198;2023-01-15T23:18:59;100600.46;;;5.93;100.00
68712;BME280;55690;51.566;19.198;2023-01-15T23:23:01;100609.98;;;5.83;100.00
68712;BME280;55690;51.566;19.198;2023-01-15T23:27:03;100601.24;;;5.95;100.00
68712;BME280;55690;51.566;19.198;2023-01-15T23:31:04;100596.07;;;5.75;100.00
68712;BME280;55690;51.566;19.198;2023-01-15T23:35:07;100590.50;;;5.78;100.00
68712;BME280;55690;51.566;19.198;2023-01-15T23:39:09;100591.27;;;5.64;100.00
68712;BME280;55690;51.566;19.198;2023-01-15T23:43:12;100593.96;;;5.64;100.00
68712;BME280;55690;51.566;19.198;2023-01-15T23:47:26;100595.45;;;5.70;100.00
68712;BME280;55690;51.566;19.198;2023-01-15T23:51:28;100587.80;;;5.78;100.00